Erlton, New Jersey
Current Conditions -  °F | °C
As of 11:37 AM on Monday 24 Nov 2014 (Local Time) from KVAY Reporting Station
Overcast Overcast  
Wind Chill: 69°   Ceiling: 2800
Heat Index: 69°   Visibility: 10mi
Dew Point: 60°   Wind: 13mph
Humidity: 73%   Direction: 230°SW
Pressure: 29.65"   Gusts: 22mph
Location:  39.9312°N, 75.0244°W
Report Text: KVAY 241637Z AUTO 23011G19KT 10SM BKN028 OVC034 21/16 A2965 RMK AO2 T02060156
Loading
Personal Weather Stations






























Interactive Weather Map New forecast layout! Learn more

10-Day Weather Forecast

Advertisements
Track Severe Weather on mobile